Wetterdaten: Woche 28.09.09 - 04.10.09 (KW40)
Datum Zeit Temp. A. Feuchte A. Luftdruck Regen Wind Richtung Taupunkt Windchill Windben
28.09.2009 00:00 14,9 C 77 % 1022,9 hPa 0,0 l/m 0,9 km/h S 10,9 C 14,9 C 7,7 km/h
28.09.2009 01:00 13,3 C 79 % 1022,8 hPa 0,0 l/m 0,4 km/h N 9,7 C 13,3 C 3,6 km/h
28.09.2009 02:00 11,5 C 87 % 1022,6 hPa 0,0 l/m 0,1 km/h N 9,4 C 11,5 C 2,4 km/h
28.09.2009 03:00 10,5 C 89 % 1022,4 hPa 0,0 l/m 0,0 km/h N 8,7 C 10,5 C 1,2 km/h
28.09.2009 04:00 10,0 C 91 % 1022,4 hPa 0,0 l/m 0,0 km/h N 8,5 C 10,0 C 0,0 km/h
28.09.2009 05:00 9,8 C 91 % 1022,6 hPa 0,0 l/m 0,0 km/h N 8,4 C 9,8 C 0,8 km/h
28.09.2009 06:00 9,1 C 92 % 1022,8 hPa 0,0 l/m 0,0 km/h N 7,9 C 9,1 C 0,0 km/h
28.09.2009 07:00 9,2 C 93 % 1023,1 hPa 0,0 l/m 0,0 km/h N 8,1 C 9,2 C 0,0 km/h
28.09.2009 08:00 11,6 C 92 % 1023,2 hPa 0,0 l/m 0,0 km/h N 10,3 C 11,6 C 0,0 km/h
28.09.2009 09:00 14,9 C 82 % 1023,1 hPa 0,0 l/m 0,1 km/h N 11,8 C 14,9 C 1,6 km/h
28.09.2009 10:00 17,9 C 71 % 1022,9 hPa 0,0 l/m 0,1 km/h N 12,5 C 17,9 C 1,6 km/h
28.09.2009 11:00 21,0 C 64 % 1022,3 hPa 0,0 l/m 1,9 km/h NO 13,7 C 21,0 C 10,9 km/h
28.09.2009 12:00 22,8 C 57 % 1021,6 hPa 0,0 l/m 3,4 km/h N 13,7 C 22,8 C 13,3 km/h
28.09.2009 13:00 23,1 C 56 % 1021,3 hPa 0,0 l/m 5,5 km/h N-NW 13,8 C 23,0 C 16,9 km/h
28.09.2009 14:00 23,4 C 55 % 1020,6 hPa 0,0 l/m 4,9 km/h N-NW 13,8 C 23,4 C 16,9 km/h
28.09.2009 15:00 23,3 C 52 % 1020,0 hPa 0,0 l/m 4,8 km/h N-NW 12,9 C 23,3 C 17,3 km/h
28.09.2009 16:00 22,9 C 54 % 1019,6 hPa 0,0 l/m 3,2 km/h S 13,0 C 22,9 C 13,7 km/h
28.09.2009 17:00 22,0 C 52 % 1019,2 hPa 0,0 l/m 2,2 km/h SW 11,8 C 22,0 C 8,4 km/h
28.09.2009 18:00 20,9 C 57 % 1019,2 hPa 0,0 l/m 1,7 km/h NO 12,1 C 20,9 C 10,5 km/h
28.09.2009 19:00 19,7 C 61 % 1019,0 hPa 0,0 l/m 1,5 km/h SW 12,0 C 19,7 C 8,0 km/h
28.09.2009 20:00 19,3 C 61 % 1018,8 hPa 0,0 l/m 2,0 km/h S 11,6 C 19,3 C 9,6 km/h
28.09.2009 21:00 18,6 C 63 % 1018,8 hPa 0,0 l/m 1,0 km/h W-SW 11,4 C 18,6 C 6,4 km/h
28.09.2009 22:00 16,6 C 70 % 1018,7 hPa 0,0 l/m 0,1 km/h N 11,1 C 16,6 C 2,0 km/h
28.09.2009 23:00 14,3 C 79 % 1018,4 hPa 0,0 l/m 0,0 km/h N 10,7 C 14,3 C 0,8 km/h
29.09.2009 00:00 12,8 C 85 % 1018,3 hPa 0,0 l/m 0,0 km/h N 10,3 C 12,8 C 0,4 km/h
29.09.2009 01:00 12,0 C 87 % 1017,7 hPa 0,0 l/m 0,0 km/h N 9,9 C 12,0 C 1,2 km/h
29.09.2009 02:00 11,3 C 89 % 1017,2 hPa 0,0 l/m 0,0 km/h N 9,6 C 11,3 C 1,2 km/h
29.09.2009 03:00 14,7 C 83 % 1016,7 hPa 0,0 l/m 0,7 km/h S 11,8 C 14,7 C 6,4 km/h
29.09.2009 04:00 17,5 C 71 % 1016,3 hPa 0,0 l/m 0,7 km/h SW 12,1 C 17,5 C 7,6 km/h
29.09.2009 05:00 15,9 C 77 % 1016,2 hPa 0,0 l/m 0,2 km/h N 12,0 C 15,9 C 2,4 km/h
29.09.2009 06:00 16,6 C 73 % 1015,9 hPa 0,0 l/m 1,8 km/h NO 11,7 C 16,6 C 12,1 km/h
29.09.2009 07:00 17,7 C 65 % 1015,7 hPa 0,0 l/m 4,2 km/h NW 11,0 C 17,7 C 17,7 km/h
29.09.2009 08:00 17,5 C 64 % 1016,0 hPa 0,0 l/m 4,8 km/h W-NW 10,5 C 17,5 C 21,7 km/h
29.09.2009 09:00 17,8 C 62 % 1016,4 hPa 0,0 l/m 3,2 km/h NW 10,4 C 17,8 C 20,9 km/h
29.09.2009 10:00 18,2 C 64 % 1016,8 hPa 0,0 l/m 5,6 km/h NW 11,1 C 18,2 C 24,9 km/h
29.09.2009 11:00 18,6 C 63 % 1016,5 hPa 0,0 l/m 6,4 km/h NW 11,3 C 18,6 C 24,9 km/h
29.09.2009 12:00 19,5 C 58 % 1015,7 hPa 0,0 l/m 9,7 km/h NW 11,0 C 18,1 C 35,4 km/h
29.09.2009 13:00 21,0 C 55 % 1015,5 hPa 0,0 l/m 11,3 km/h W-NW 11,5 C 19,4 C 40,2 km/h
29.09.2009 14:00 20,9 C 54 % 1015,5 hPa 0,0 l/m 11,3 km/h W-SW 11,1 C 19,3 C 43,4 km/h
29.09.2009 15:00 20,8 C 53 % 1015,1 hPa 0,0 l/m 9,7 km/h W-NW 10,8 C 19,7 C 33,8 km/h
29.09.2009 16:00 20,1 C 54 % 1014,8 hPa 0,0 l/m 8,6 km/h S-SO 10,6 C 19,3 C 29,5 km/h
29.09.2009 17:00 19,6 C 55 % 1015,2 hPa 0,0 l/m 6,5 km/h W-NW 10,3 C 19,5 C 24,9 km/h
29.09.2009 18:00 19,0 C 55 % 1015,3 hPa 0,0 l/m 5,3 km/h W-SW 9,6 C 19,0 C 20,1 km/h
29.09.2009 19:00 18,5 C 57 % 1015,4 hPa 0,0 l/m 5,0 km/h S-SW 9,7 C 18,5 C 18,1 km/h
29.09.2009 20:00 18,0 C 60 % 1015,8 hPa 0,0 l/m 5,4 km/h N-NW 10,1 C 18,0 C 16,9 km/h
29.09.2009 21:00 17,3 C 63 % 1016,0 hPa 0,0 l/m 4,3 km/h N 10,1 C 17,3 C 16,9 km/h
29.09.2009 22:00 16,7 C 64 % 1016,1 hPa 0,0 l/m 3,7 km/h O 9,9 C 16,7 C 14,5 km/h
29.09.2009 23:00 16,9 C 62 % 1015,8 hPa 0,0 l/m 4,8 km/h N-NW 9,6 C 16,9 C 18,5 km/h
30.09.2009 00:00 17,2 C 62 % 1015,7 hPa 0,0 l/m 4,7 km/h NW 9,9 C 17,2 C 18,1 km/h
30.09.2009 01:00 17,2 C 62 % 1015,4 hPa 0,0 l/m 5,8 km/h NW 9,9 C 17,1 C 20,9 km/h
30.09.2009 02:00 17,1 C 63 % 1015,5 hPa 0,0 l/m 7,6 km/h W-NW 10,0 C 16,5 C 24,1 km/h
30.09.2009 03:00 16,8 C 64 % 1015,4 hPa 0,0 l/m 6,3 km/h W-NW 9,9 C 16,6 C 20,5 km/h
30.09.2009 04:00 16,5 C 66 % 1015,5 hPa 0,0 l/m 4,9 km/h W-SW 10,1 C 16,5 C 20,5 km/h
30.09.2009 05:00 16,8 C 64 % 1015,7 hPa 0,0 l/m 4,7 km/h O 10,0 C 16,8 C 18,1 km/h
30.09.2009 06:00 16,7 C 66 % 1015,8 hPa 0,0 l/m 4,1 km/h W-SW 10,3 C 16,7 C 18,9 km/h
30.09.2009 07:00 16,1 C 70 % 1016,1 hPa 0,0 l/m 3,9 km/h NW 10,7 C 16,1 C 22,1 km/h
30.09.2009 08:00 16,3 C 70 % 1016,5 hPa 0,0 l/m 2,6 km/h S-SO 10,7 C 16,3 C 11,3 km/h
30.09.2009 09:00 16,6 C 69 % 1017,0 hPa 0,0 l/m 3,1 km/h W-NW 10,8 C 16,6 C 17,3 km/h
30.09.2009 10:00 17,3 C 66 % 1017,1 hPa 0,0 l/m 3,8 km/h NO 10,9 C 17,3 C 18,1 km/h
30.09.2009 11:00 18,0 C 63 % 1017,1 hPa 0,0 l/m 4,1 km/h SW 10,9 C 18,0 C 18,9 km/h
30.09.2009 12:00 18,1 C 64 % 1017,1 hPa 0,0 l/m 4,9 km/h O 11,3 C 18,1 C 16,9 km/h
30.09.2009 13:00 18,3 C 64 % 1016,8 hPa 0,0 l/m 4,4 km/h NW 11,5 C 18,3 C 12,1 km/h
30.09.2009 14:00 19,4 C 60 % 1016,0 hPa 0,0 l/m 4,9 km/h S-SW 11,3 C 19,4 C 15,7 km/h
30.09.2009 15:00 18,7 C 63 % 1015,9 hPa 0,0 l/m 4,7 km/h W 11,4 C 18,7 C 12,5 km/h
30.09.2009 16:00 19,0 C 63 % 1015,7 hPa 0,0 l/m 3,8 km/h NW 11,7 C 19,0 C 10,9 km/h
30.09.2009 17:00 18,3 C 68 % 1015,6 hPa 0,0 l/m 2,6 km/h N-NO 12,1 C 18,3 C 6,4 km/h
30.09.2009 18:00 16,5 C 76 % 1015,8 hPa 0,0 l/m 1,2 km/h N-NO 12,2 C 16,5 C 3,6 km/h
30.09.2009 19:00 15,0 C 81 % 1016,3 hPa 0,0 l/m 0,1 km/h N 11,8 C 15,0 C 0,8 km/h
30.09.2009 20:00 15,0 C 83 % 1016,6 hPa 0,0 l/m 0,0 km/h N 12,0 C 15,0 C 0,4 km/h
30.09.2009 21:00 14,9 C 84 % 1016,7 hPa 0,0 l/m 0,0 km/h N 12,1 C 14,9 C 0,0 km/h
30.09.2009 22:00 15,1 C 82 % 1016,4 hPa 0,0 l/m 0,0 km/h N 12,1 C 15,1 C 1,2 km/h
30.09.2009 23:00 14,8 C 85 % 1016,0 hPa 0,0 l/m 0,0 km/h N 12,3 C 14,8 C 0,0 km/h
01.10.2009 00:00 14,6 C 86 % 1015,4 hPa 0,0 l/m 0,0 km/h N 12,3 C 14,6 C 0,4 km/h
01.10.2009 01:00 14,3 C 87 % 1014,8 hPa 0,0 l/m 0,0 km/h N 12,1 C 14,3 C 0,0 km/h
01.10.2009 02:00 13,5 C 89 % 1014,2 hPa 0,0 l/m 0,0 km/h N 11,7 C 13,5 C 0,0 km/h
01.10.2009 03:00 13,8 C 90 % 1013,6 hPa 0,0 l/m 0,0 km/h N 12,1 C 13,8 C 0,0 km/h
01.10.2009 04:00 13,5 C 90 % 1013,1 hPa 0,0 l/m 0,0 km/h N 12,0 C 13,5 C 0,0 km/h
01.10.2009 05:00 12,5 C 90 % 1012,9 hPa 0,0 l/m 0,0 km/h N 11,0 C 12,5 C 0,4 km/h
01.10.2009 06:00 11,4 C 92 % 1012,8 hPa 0,0 l/m 0,0 km/h N 10,1 C 11,4 C 0,0 km/h
01.10.2009 07:00 11,7 C 92 % 1012,7 hPa 0,0 l/m 0,0 km/h N 10,4 C 11,7 C 1,2 km/h
01.10.2009 08:00 13,6 C 89 % 1012,5 hPa 0,0 l/m 0,1 km/h N 11,8 C 13,6 C 2,0 km/h
01.10.2009 09:00 14,9 C 84 % 1012,4 hPa 0,0 l/m 0,5 km/h N 12,1 C 14,9 C 4,4 km/h
01.10.2009 10:00 16,5 C 80 % 1012,2 hPa 0,0 l/m 0,6 km/h N 12,9 C 16,5 C 3,6 km/h
01.10.2009 11:00 18,0 C 74 % 1011,8 hPa 0,0 l/m 0,3 km/h N 13,1 C 18,0 C 2,4 km/h
01.10.2009 12:00 18,5 C 68 % 1011,5 hPa 0,0 l/m 2,5 km/h N-NW 12,5 C 18,5 C 8,5 km/h
01.10.2009 13:00 21,0 C 60 % 1010,6 hPa 0,0 l/m 4,0 km/h NW 13,0 C 21,0 C 12,1 km/h
01.10.2009 14:00 21,8 C 57 % 1009,9 hPa 0,0 l/m 6,3 km/h NO 12,9 C 21,7 C 21,3 km/h
01.10.2009 15:00 21,5 C 59 % 1009,7 hPa 0,0 l/m 5,6 km/h NW 13,1 C 21,5 C 18,1 km/h
01.10.2009 16:00 20,4 C 62 % 1009,8 hPa 0,0 l/m 4,7 km/h W-NW 12,8 C 20,4 C 17,3 km/h
01.10.2009 17:00 19,8 C 62 % 1010,0 hPa 0,0 l/m 4,5 km/h N-NW 12,1 C 19,8 C 19,7 km/h
01.10.2009 18:00 18,9 C 63 % 1010,2 hPa 0,0 l/m 3,0 km/h S-SO 11,8 C 18,9 C 16,5 km/h
01.10.2009 19:00 18,3 C 63 % 1010,6 hPa 0,0 l/m 1,8 km/h SW 11,2 C 18,3 C 12,1 km/h
01.10.2009 20:00 17,5 C 65 % 1011,1 hPa 0,0 l/m 0,9 km/h S-SW 10,9 C 17,5 C 10,4 km/h
01.10.2009 21:00 17,6 C 66 % 1011,1 hPa 0,0 l/m 3,0 km/h NW 11,0 C 17,6 C 12,1 km/h
01.10.2009 22:00 17,3 C 63 % 1011,2 hPa 0,0 l/m 3,3 km/h NO 10,2 C 17,3 C 14,9 km/h
01.10.2009 23:00 16,6 C 61 % 1011,8 hPa 0,0 l/m 3,1 km/h NW 9,0 C 16,6 C 12,9 km/h
02.10.2009 00:00 15,7 C 65 % 1012,5 hPa 0,0 l/m 3,8 km/h NW 9,2 C 15,7 C 10,1 km/h
02.10.2009 01:00 15,0 C 69 % 1013,1 hPa 0,0 l/m 2,9 km/h N-NW 9,3 C 15,0 C 6,8 km/h
02.10.2009 02:00 14,5 C 70 % 1013,1 hPa 0,0 l/m 1,4 km/h N-NW 9,0 C 14,5 C 4,4 km/h
02.10.2009 03:00 13,9 C 74 % 1013,1 hPa 0,0 l/m 0,1 km/h N 9,2 C 13,9 C 1,2 km/h
02.10.2009 04:00 13,8 C 73 % 1013,5 hPa 0,0 l/m 1,9 km/h N-NW 9,0 C 13,8 C 5,6 km/h
02.10.2009 05:00 13,4 C 73 % 1014,0 hPa 0,0 l/m 3,6 km/h N-NO 8,7 C 13,4 C 8,9 km/h
02.10.2009 06:00 12,8 C 73 % 1014,1 hPa 0,0 l/m 2,9 km/h N-NW 8,2 C 12,8 C 7,6 km/h
02.10.2009 07:00 12,7 C 75 % 1014,5 hPa 0,0 l/m 0,9 km/h N-NW 8,3 C 12,7 C 3,2 km/h
02.10.2009 08:00 12,8 C 75 % 1015,1 hPa 0,0 l/m 1,4 km/h NW 8,5 C 12,8 C 4,8 km/h
02.10.2009 09:00 12,9 C 74 % 1015,4 hPa 0,0 l/m 1,7 km/h N-NW 8,4 C 12,9 C 6,0 km/h
02.10.2009 10:00 13,0 C 73 % 1015,6 hPa 0,0 l/m 1,1 km/h N 8,3 C 13,0 C 4,4 km/h
02.10.2009 11:00 13,6 C 72 % 1015,6 hPa 0,0 l/m 0,8 km/h N-NW 8,6 C 13,6 C 4,4 km/h
02.10.2009 12:00 13,9 C 70 % 1015,5 hPa 0,0 l/m 0,5 km/h N 8,5 C 13,9 C 3,2 km/h
02.10.2009 13:00 13,8 C 71 % 1015,2 hPa 0,0 l/m 0,2 km/h S-SW 8,7 C 13,8 C 2,4 km/h
02.10.2009 14:00 14,9 C 67 % 1014,6 hPa 0,0 l/m 0,8 km/h N 8,8 C 14,9 C 3,6 km/h
02.10.2009 15:00 14,6 C 69 % 1014,3 hPa 0,0 l/m 0,9 km/h N-NO 9,0 C 14,6 C 4,4 km/h
02.10.2009 16:00 15,0 C 69 % 1013,9 hPa 0,0 l/m 0,1 km/h N 9,4 C 15,0 C 1,6 km/h
02.10.2009 17:00 14,9 C 70 % 1013,9 hPa 0,0 l/m 0,1 km/h N 9,4 C 14,9 C 1,6 km/h
02.10.2009 18:00 12,7 C 80 % 1014,5 hPa 0,0 l/m 0,0 km/h N 9,3 C 12,7 C 0,0 km/h
02.10.2009 19:00 10,3 C 87 % 1015,2 hPa 0,0 l/m 0,0 km/h N 8,1 C 10,3 C 0,0 km/h
02.10.2009 20:00 9,3 C 88 % 1015,8 hPa 0,0 l/m 0,0 km/h N 7,4 C 9,3 C 0,0 km/h
02.10.2009 21:00 12,2 C 75 % 1016,5 hPa 0,0 l/m 1,1 km/h N 7,9 C 12,2 C 5,2 km/h
02.10.2009 22:00 12,1 C 71 % 1016,8 hPa 0,0 l/m 0,9 km/h N 7,1 C 12,1 C 3,2 km/h
02.10.2009 23:00 11,8 C 71 % 1017,0 hPa 0,0 l/m 0,1 km/h N 6,7 C 11,8 C 1,6 km/h
03.10.2009 00:00 10,6 C 75 % 1017,1 hPa 0,0 l/m 0,0 km/h N 6,4 C 10,6 C 0,4 km/h
03.10.2009 01:00 8,9 C 79 % 1017,3 hPa 0,0 l/m 0,0 km/h N 5,4 C 8,9 C 0,0 km/h
03.10.2009 02:00 7,1 C 86 % 1017,8 hPa 0,0 l/m 0,0 km/h N 4,9 C 7,1 C 0,0 km/h
03.10.2009 03:00 6,7 C 88 % 1017,5 hPa 0,0 l/m 0,0 km/h N 4,8 C 6,7 C 0,0 km/h
03.10.2009 04:00 5,8 C 89 % 1017,9 hPa 0,0 l/m 0,0 km/h N 4,1 C 5,8 C 0,0 km/h
03.10.2009 05:00 5,1 C 91 % 1018,3 hPa 0,0 l/m 0,0 km/h N 3,7 C 5,1 C 0,0 km/h
03.10.2009 06:00 6,2 C 91 % 1018,3 hPa 0,0 l/m 0,0 km/h N 4,7 C 6,2 C 0,0 km/h
03.10.2009 07:00 6,3 C 90 % 1018,7 hPa 0,0 l/m 0,0 km/h N 4,8 C 6,3 C 0,0 km/h
03.10.2009 08:00 8,5 C 89 % 1018,7 hPa 0,0 l/m 0,0 km/h N 6,8 C 8,5 C 0,0 km/h
03.10.2009 09:00 11,7 C 74 % 1018,6 hPa 0,0 l/m 0,4 km/h N 7,2 C 11,7 C 4,8 km/h
03.10.2009 10:00 13,1 C 65 % 1018,8 hPa 0,0 l/m 0,9 km/h N 6,7 C 13,1 C 6,8 km/h
03.10.2009 11:00 14,8 C 57 % 1018,5 hPa 0,0 l/m 2,2 km/h NW 6,4 C 14,8 C 8,0 km/h
03.10.2009 12:00 15,8 C 52 % 1017,8 hPa 0,0 l/m 2,3 km/h N-NO 5,9 C 15,8 C 8,9 km/h
03.10.2009 13:00 17,3 C 46 % 1017,3 hPa 0,0 l/m 3,0 km/h N-NW 5,6 C 17,3 C 10,5 km/h
03.10.2009 14:00 17,7 C 45 % 1016,5 hPa 0,0 l/m 2,0 km/h N-NO 5,5 C 17,7 C 7,2 km/h
03.10.2009 15:00 18,3 C 43 % 1015,8 hPa 0,0 l/m 1,9 km/h SO 5,5 C 18,3 C 6,0 km/h
03.10.2009 16:00 18,3 C 45 % 1015,1 hPa 0,0 l/m 0,8 km/h W-SW 6,1 C 18,3 C 5,6 km/h
03.10.2009 17:00 17,4 C 47 % 1014,8 hPa 0,0 l/m 2,1 km/h W-SW 6,0 C 17,4 C 10,1 km/h
03.10.2009 18:00 15,4 C 57 % 1014,7 hPa 0,0 l/m 0,3 km/h N 7,0 C 15,4 C 4,4 km/h
03.10.2009 19:00 13,8 C 68 % 1014,6 hPa 0,0 l/m 0,4 km/h N 7,9 C 13,8 C 3,6 km/h
03.10.2009 20:00 12,9 C 74 % 1014,2 hPa 0,0 l/m 0,5 km/h S-SO 8,4 C 12,9 C 6,0 km/h
03.10.2009 21:00 12,6 C 75 % 1013,7 hPa 0,0 l/m 1,6 km/h S 8,3 C 12,6 C 7,6 km/h
03.10.2009 22:00 10,4 C 82 % 1013,3 hPa 0,0 l/m 0,0 km/h N 7,5 C 10,4 C 0,8 km/h
03.10.2009 23:00 8,9 C 87 % 1013,2 hPa 0,0 l/m 0,0 km/h N 6,9 C 8,9 C 0,8 km/h
04.10.2009 00:00 8,7 C 87 % 1012,8 hPa 0,0 l/m 0,0 km/h N 6,7 C 8,7 C 1,6 km/h
04.10.2009 01:00 7,8 C 89 % 1012,8 hPa 0,0 l/m 0,0 km/h N 6,1 C 7,8 C 0,8 km/h
04.10.2009 02:00 7,6 C 89 % 1012,7 hPa 0,0 l/m 0,0 km/h N 5,9 C 7,6 C 1,6 km/h
04.10.2009 03:00 7,1 C 89 % 1012,6 hPa 0,0 l/m 0,0 km/h N 5,4 C 7,1 C 1,2 km/h
04.10.2009 04:00 8,1 C 85 % 1012,7 hPa 0,0 l/m 0,2 km/h N 5,7 C 8,1 C 2,8 km/h
04.10.2009 05:00 6,5 C 89 % 1012,7 hPa 0,0 l/m 0,0 km/h N 4,8 C 6,5 C 0,8 km/h
04.10.2009 06:00 6,1 C 90 % 1013,2 hPa 0,0 l/m 0,0 km/h N 4,5 C 6,1 C 1,2 km/h
04.10.2009 07:00 6,0 C 91 % 1013,4 hPa 0,0 l/m 0,1 km/h N 4,6 C 6,0 C 2,0 km/h
04.10.2009 08:00 8,4 C 88 % 1013,7 hPa 0,0 l/m 0,0 km/h N 6,6 C 8,4 C 0,8 km/h
04.10.2009 09:00 11,9 C 80 % 1013,9 hPa 0,0 l/m 0,0 km/h N 8,4 C 11,9 C 1,6 km/h
04.10.2009 10:00 15,3 C 68 % 1014,0 hPa 0,0 l/m 0,6 km/h O 9,3 C 15,3 C 2,8 km/h
04.10.2009 11:00 19,2 C 51 % 1013,6 hPa 0,0 l/m 3,4 km/h SW 8,4 C 19,0 C 12,9 km/h
04.10.2009 12:00 21,2 C 44 % 1013,3 hPa 0,0 l/m 5,7 km/h W 8,1 C 21,0 C 18,5 km/h
04.10.2009 13:00 22,3 C 37 % 1012,7 hPa 0,0 l/m 7,8 km/h S-SW 6,7 C 21,9 C 29,8 km/h
04.10.2009 14:00 23,0 C 37 % 1012,0 hPa 0,0 l/m 4,9 km/h S-SO 7,4 C 23,0 C 19,3 km/h
04.10.2009 15:00 22,9 C 40 % 1011,7 hPa 0,0 l/m 2,0 km/h NW 8,7 C 22,9 C 10,1 km/h
04.10.2009 16:00 22,1 C 44 % 1011,5 hPa 0,0 l/m 1,5 km/h N-NW 9,2 C 22,1 C 8,4 km/h
04.10.2009 17:00 20,0 C 50 % 1011,8 hPa 0,0 l/m 1,6 km/h N-NW 9,2 C 20,0 C 5,6 km/h
04.10.2009 18:00 16,8 C 61 % 1012,2 hPa 0,0 l/m 0,3 km/h N 9,2 C 16,8 C 1,2 km/h
04.10.2009 19:00 13,8 C 72 % 1012,9 hPa 0,0 l/m 0,0 km/h N 8,8 C 13,8 C 1,2 km/h
04.10.2009 20:00 13,4 C 72 % 1013,6 hPa 0,0 l/m 0,0 km/h N 8,6 C 13,4 C 1,6 km/h
04.10.2009 21:00 11,3 C 79 % 1014,3 hPa 0,0 l/m 0,0 km/h N 7,7 C 11,3 C 0,8 km/h
04.10.2009 22:00 10,5 C 84 % 1015,0 hPa 0,0 l/m 0,0 km/h N 7,8 C 10,5 C 0,0 km/h
04.10.2009 23:00 10,1 C 86 % 1015,4 hPa 0,0 l/m 0,0 km/h N 7,8 C 10,1 C 0,0 km/h
Min-Datum _ 03.10.09 04.10.09 01.10.09 - 28.09.09 - 03.10.09 03.10.09 28.09.09
_ Min-Zeit 05:30 13:00 14:45 - 00:15 - 05:30 05:30 01:30
Minimum _ 4,9 C 36 % 1009,7 hPa - 0,0 km/h - 3,7 C 5,0 C 0,0 km/h
Max-Datum _ 28.09.09 28.09.09 28.09.09 28.09.09 29.09.09 - 28.09.09 28.09.09 29.09.09
_ Max-Zeit 14:30 07:30 07:15 00:00 13:00 - 13:30 14:30 14:30
Maximum _ 23,7 C 93 % 1023,2 hPa 0,0 l/m 11,3 km/h
W-NW
- 14,3 C 23,7 C 45,1 km/h
SW
Durchschnitt _ 15,2 C 71 % 1015,7 hPa #0,0 l/m 2,1 km/h NW 9,5 C 15,1 C 8,4 km/h